Time;durP1;ratioP1;P1;durP2;ratioP2;P2;SDS_P1;SDS_P2;PMS_P1;PMS_P2;Temp;Humidity;BMP_temperature;BMP_pressure;BME280_temperature;BME280_humidity;BME280_pressure;Samples;Min_cycle;Max_cycle;Signal;HPM_P1;HPM_P2
2023/11/20 00:00:29;;;;;;;9.37;3.03;;;12.60;99.90;;;;;;4980026;28;20504;-78
2023/11/20 00:02:55;;;;;;;8.00;2.07;;;12.50;99.90;;;;;;4979050;28;20535;-77
2023/11/20 00:05:22;;;;;;;6.90;1.70;;;12.60;99.90;;;;;;4977855;28;20456;-78
2023/11/20 00:07:49;;;;;;;7.07;1.77;;;12.60;99.90;;;;;;4978371;28;20856;-78
2023/11/20 00:10:16;;;;;;;11.60;2.27;;;12.60;99.90;;;;;;4981018;28;20505;-78
2023/11/20 00:12:46;;;;;;;9.20;2.37;;;12.60;99.90;;;;;;4982161;28;20515;-77
2023/11/20 00:15:13;;;;;;;13.03;2.43;;;12.60;99.90;;;;;;4983316;28;20480;-78
2023/11/20 00:17:42;;;;;;;7.67;1.80;;;12.60;99.90;;;;;;4981849;28;20484;-77
2023/11/20 00:20:09;;;;;;;7.33;2.30;;;12.60;99.90;;;;;;4981974;28;21014;-78
2023/11/20 00:22:36;;;;;;;7.13;2.23;;;12.60;99.90;;;;;;4981329;28;20460;-77
2023/11/20 00:25:07;;;;;;;6.80;1.90;;;12.60;99.90;;;;;;4982090;28;20885;-77
2023/11/20 00:27:33;;;;;;;8.87;2.30;;;12.50;99.90;;;;;;4963496;28;20453;-77
2023/11/20 00:30:02;;;;;;;4.77;1.67;;;12.60;99.90;;;;;;4977131;28;20501;-77
2023/11/20 00:32:28;;;;;;;8.93;3.13;;;12.50;99.90;;;;;;4979149;28;20478;-78
2023/11/20 00:34:57;;;;;;;9.37;2.13;;;12.60;99.90;;;;;;4978589;28;20469;-77
2023/11/20 00:37:22;;;;;;;8.10;2.40;;;12.60;99.90;;;;;;4978923;28;20491;-77
2023/11/20 00:39:49;;;;;;;10.33;1.83;;;12.50;99.90;;;;;;4977680;28;20556;-77
2023/11/20 00:42:16;;;;;;;9.03;2.30;;;12.50;99.90;;;;;;4977852;28;20210;-77
2023/11/20 00:44:43;;;;;;;16.20;2.27;;;12.50;99.90;;;;;;4978375;28;20453;-78
2023/11/20 00:47:10;;;;;;;4.40;2.07;;;12.50;99.90;;;;;;4978188;28;20455;-78
2023/11/20 00:49:39;;;;;;;13.37;2.60;;;12.50;99.90;;;;;;4978555;28;20905;-78
2023/11/20 00:52:12;;;;;;;6.87;2.07;;;12.40;99.90;;;;;;4976429;28;20516;-78
2023/11/20 00:54:41;;;;;;;4.40;1.90;;;12.40;99.90;;;;;;4979712;28;20453;-77
2023/11/20 00:57:08;;;;;;;6.80;1.70;;;12.40;99.90;;;;;;4983029;28;20449;-73
2023/11/20 00:59:35;;;;;;;3.93;1.73;;;12.40;99.90;;;;;;4978219;28;20991;-71
2023/11/20 01:02:03;;;;;;;4.03;1.20;;;12.20;99.90;;;;;;4976937;28;20449;-71
2023/11/20 01:04:37;;;;;;;5.23;1.57;;;12.20;99.90;;;;;;4978510;28;20445;-73
2023/11/20 01:07:06;;;;;;;6.90;1.80;;;12.20;99.90;;;;;;4978287;28;20457;-73
2023/11/20 01:09:37;;;;;;;6.33;1.70;;;12.10;99.90;;;;;;4977649;28;20500;-73
2023/11/20 01:12:05;;;;;;;4.37;1.90;;;12.10;99.90;;;;;;4978076;28;20430;-73
2023/11/20 01:14:32;;;;;;;8.80;2.00;;;12.10;99.90;;;;;;4978257;28;20461;-74
2023/11/20 01:16:59;;;;;;;11.70;2.23;;;12.00;99.90;;;;;;4978638;28;20455;-74
2023/11/20 01:19:29;;;;;;;8.67;2.40;;;12.10;99.90;;;;;;4977244;28;20492;-74
2023/11/20 01:21:56;;;;;;;7.83;2.10;;;12.00;99.90;;;;;;4977206;28;20500;-73
2023/11/20 01:24:24;;;;;;;6.23;2.40;;;12.00;99.90;;;;;;4977048;28;20790;-73
2023/11/20 01:26:53;;;;;;;7.93;2.30;;;12.00;99.90;;;;;;4977325;28;20453;-73
2023/11/20 01:29:24;;;;;;;9.60;2.07;;;12.00;99.90;;;;;;4983757;28;20461;-74
2023/11/20 01:31:50;;;;;;;12.13;2.77;;;12.00;99.90;;;;;;4993349;28;20430;-75
2023/11/20 01:34:18;;;;;;;10.37;2.50;;;11.90;99.90;;;;;;4997496;28;20440;-75
2023/11/20 01:36:50;;;;;;;8.27;1.77;;;11.90;99.90;;;;;;4996163;28;20456;-76
2023/11/20 01:39:17;;;;;;;12.07;3.20;;;11.90;99.90;;;;;;4994226;28;20561;-77
2023/11/20 01:41:44;;;;;;;6.07;2.10;;;12.00;99.90;;;;;;4993703;28;20460;-77
2023/11/20 01:44:14;;;;;;;8.40;2.20;;;12.00;99.90;;;;;;4991919;28;20440;-77
2023/11/20 01:46:41;;;;;;;6.20;2.20;;;11.90;99.90;;;;;;4991435;28;20437;-77
2023/11/20 01:49:10;;;;;;;11.93;2.80;;;11.90;99.90;;;;;;4999462;28;20453;-77
2023/11/20 01:51:37;;;;;;;8.03;2.20;;;11.90;99.90;;;;;;4997555;28;20587;-78
2023/11/20 01:54:06;;;;;;;15.63;2.20;;;11.90;99.90;;;;;;4995838;28;20445;-77
2023/11/20 01:56:34;;;;;;;8.63;2.50;;;11.90;99.90;;;;;;4991664;28;20507;-77
2023/11/20 01:59:04;;;;;;;6.40;1.77;;;11.90;99.90;;;;;;4991213;28;20489;-78
2023/11/20 02:01:33;;;;;;;10.50;1.80;;;11.90;99.90;;;;;;4990142;28;20477;-77
2023/11/20 02:04:04;;;;;;;8.70;2.07;;;11.90;99.90;;;;;;4988013;28;20488;-77
2023/11/20 02:06:32;;;;;;;6.83;2.43;;;11.90;99.90;;;;;;4986924;28;20413;-78
2023/11/20 02:08:59;;;;;;;5.67;2.10;;;11.90;99.90;;;;;;4986394;28;20497;-78
2023/11/20 02:11:27;;;;;;;4.80;1.63;;;12.00;99.90;;;;;;4985040;28;20516;-78
2023/11/20 02:13:57;;;;;;;8.70;2.00;;;12.00;99.90;;;;;;4985565;28;20867;-79
2023/11/20 02:16:25;;;;;;;6.87;1.73;;;12.00;99.90;;;;;;4984699;28;20529;-78
2023/11/20 02:18:54;;;;;;;6.07;2.40;;;12.00;99.90;;;;;;4983899;28;20507;-78
2023/11/20 02:21:24;;;;;;;9.23;2.57;;;12.00;99.90;;;;;;4983956;28;20548;-78
2023/11/20 02:23:51;;;;;;;6.83;1.77;;;12.00;99.90;;;;;;4983614;28;20789;-78
2023/11/20 02:26:53;;;;;;;10.10;2.90;;;12.00;99.90;;;;;;4984544;28;20464;-79
2023/11/20 02:29:26;;;;;;;8.20;1.90;;;12.00;99.90;;;;;;4982672;28;20453;-78
2023/11/20 02:31:54;;;;;;;9.57;2.03;;;12.00;99.90;;;;;;4986851;28;20470;-78
2023/11/20 02:34:21;;;;;;;8.23;1.70;;;12.00;99.90;;;;;;4986900;28;20448;-78
2023/11/20 02:36:48;;;;;;;3.97;1.30;;;12.00;99.90;;;;;;4986833;28;20461;-78
2023/11/20 02:39:15;;;;;;;5.37;1.90;;;12.00;99.90;;;;;;4985186;28;20497;-78
2023/11/20 02:41:43;;;;;;;7.40;2.13;;;12.00;99.90;;;;;;4984381;28;20463;-78
2023/11/20 02:44:11;;;;;;;7.10;1.67;;;12.00;99.90;;;;;;4985474;28;20452;-79
2023/11/20 02:46:40;;;;;;;12.27;2.47;;;12.00;99.90;;;;;;4985635;28;20465;-78
2023/11/20 02:49:11;;;;;;;14.60;1.80;;;12.00;99.90;;;;;;4985606;28;20894;-78
2023/11/20 02:51:40;;;;;;;11.93;2.40;;;12.00;99.90;;;;;;4984530;28;20449;-80
2023/11/20 02:54:13;;;;;;;8.20;1.50;;;12.00;99.90;;;;;;4984853;28;20511;-78
2023/11/20 02:56:41;;;;;;;7.80;1.73;;;12.00;99.90;;;;;;4985059;28;20438;-78
2023/11/20 02:59:08;;;;;;;10.90;2.70;;;12.00;99.90;;;;;;4984466;28;20496;-78
2023/11/20 03:01:36;;;;;;;6.90;2.33;;;12.00;99.90;;;;;;4983953;28;20525;-78
2023/11/20 03:04:03;;;;;;;12.70;2.77;;;12.00;99.90;;;;;;4983744;28;20457;-78
2023/11/20 03:06:31;;;;;;;9.30;2.00;;;12.00;99.90;;;;;;4980631;28;20456;-78
2023/11/20 03:09:00;;;;;;;11.47;2.50;;;12.00;99.90;;;;;;4983067;28;20496;-78
2023/11/20 03:11:30;;;;;;;7.77;2.27;;;12.00;99.90;;;;;;4983293;28;20449;-78
2023/11/20 03:13:59;;;;;;;8.13;1.73;;;11.90;99.90;;;;;;4982427;28;20990;-78
2023/11/20 03:16:26;;;;;;;8.53;2.20;;;12.00;99.90;;;;;;4982793;28;20521;-78
2023/11/20 03:18:53;;;;;;;6.90;1.80;;;11.90;99.90;;;;;;4983438;28;20525;-78
2023/11/20 03:21:22;;;;;;;4.23;1.37;;;11.90;99.90;;;;;;4983053;28;20445;-78
2023/11/20 03:23:50;;;;;;;6.33;1.83;;;11.90;99.90;;;;;;4981759;28;20935;-78
2023/11/20 03:26:22;;;;;;;6.43;1.40;;;11.90;99.90;;;;;;4982947;28;20556;-78
2023/11/20 03:28:49;;;;;;;7.47;1.40;;;11.90;99.90;;;;;;4982059;28;20936;-78
2023/11/20 03:31:16;;;;;;;4.40;1.10;;;11.90;99.90;;;;;;4983470;28;20959;-78
2023/11/20 03:33:46;;;;;;;7.30;1.40;;;11.90;99.90;;;;;;4982600;28;20464;-78
2023/11/20 03:36:15;;;;;;;8.20;1.33;;;11.80;99.90;;;;;;4982011;28;20453;-78
2023/11/20 03:38:44;;;;;;;4.60;1.40;;;11.90;99.90;;;;;;4982076;28;20488;-77
2023/11/20 03:41:12;;;;;;;8.03;1.90;;;11.90;99.90;;;;;;4984173;28;20614;-78
2023/11/20 03:43:40;;;;;;;5.67;2.33;;;11.90;99.90;;;;;;4983920;28;20832;-78
2023/11/20 03:46:07;;;;;;;2.83;1.40;;;11.90;99.90;;;;;;4985357;28;20442;-78
2023/11/20 03:48:35;;;;;;;3.20;1.50;;;11.90;99.90;;;;;;4983393;28;20460;-78
2023/11/20 03:51:04;;;;;;;3.40;1.03;;;11.90;99.90;;;;;;4984048;28;20456;-78
2023/11/20 03:53:31;;;;;;;6.50;1.77;;;11.90;99.90;;;;;;4983608;28;20460;-78
2023/11/20 03:55:58;;;;;;;5.63;1.27;;;11.90;99.90;;;;;;4981888;28;20481;-78
2023/11/20 03:58:27;;;;;;;7.50;1.30;;;11.90;99.90;;;;;;4982071;28;20492;-78
2023/11/20 04:00:54;;;;;;;9.20;1.40;;;11.90;99.90;;;;;;4982044;28;20473;-78
2023/11/20 04:03:21;;;;;;;6.37;1.47;;;11.90;99.90;;;;;;4980587;28;20453;-78
2023/11/20 04:05:50;;;;;;;4.70;1.50;;;11.90;99.90;;;;;;4987743;28;20426;-78
2023/11/20 04:08:17;;;;;;;3.37;1.43;;;12.00;99.90;;;;;;4992695;28;20445;-78
2023/11/20 04:10:44;;;;;;;8.50;1.37;;;11.90;99.90;;;;;;4990916;28;20476;-78
2023/11/20 04:13:14;;;;;;;6.00;1.87;;;12.00;99.90;;;;;;4990571;28;20513;-78
2023/11/20 04:15:44;;;;;;;3.70;1.40;;;11.90;99.90;;;;;;4993227;28;20453;-77
2023/11/20 04:18:11;;;;;;;3.43;1.27;;;11.90;99.90;;;;;;4994908;28;20463;-77
2023/11/20 04:20:38;;;;;;;4.80;1.20;;;11.90;99.90;;;;;;4995697;28;20461;-78
2023/11/20 04:23:04;;;;;;;7.43;2.23;;;11.90;99.90;;;;;;4992312;28;20457;-78
2023/11/20 04:25:31;;;;;;;4.53;1.63;;;11.90;99.90;;;;;;4990902;28;20465;-77
2023/11/20 04:28:02;;;;;;;8.43;1.60;;;11.80;99.90;;;;;;4990111;28;20454;-78
2023/11/20 04:30:32;;;;;;;9.37;1.73;;;11.80;99.90;;;;;;4995222;28;20465;-75
2023/11/20 04:33:03;;;;;;;10.90;2.73;;;11.90;99.90;;;;;;4990705;28;20446;-74
2023/11/20 04:35:30;;;;;;;5.17;1.67;;;11.80;99.90;;;;;;4982497;28;20460;-72
2023/11/20 04:37:58;;;;;;;12.07;1.90;;;11.80;99.90;;;;;;4982776;28;20460;-72
2023/11/20 04:40:27;;;;;;;6.30;1.80;;;11.80;99.90;;;;;;4982712;28;20489;-73
2023/11/20 04:42:59;;;;;;;7.67;2.03;;;11.80;99.90;;;;;;4983285;28;20551;-73
2023/11/20 04:45:26;;;;;;;4.47;2.10;;;11.80;99.90;;;;;;4984684;28;20433;-74
2023/11/20 04:47:57;;;;;;;6.30;2.00;;;11.70;99.90;;;;;;4987118;28;20540;-75
2023/11/20 04:50:26;;;;;;;6.50;2.03;;;11.80;99.90;;;;;;4988542;28;20462;-75
2023/11/20 04:52:57;;;;;;;4.93;1.83;;;11.80;99.90;;;;;;4987483;28;20830;-76
2023/11/20 04:55:25;;;;;;;7.50;1.93;;;11.80;99.90;;;;;;4989423;28;20509;-76
2023/11/20 04:57:52;;;;;;;17.30;2.60;;;11.80;99.90;;;;;;4989188;28;20820;-76
2023/11/20 05:00:23;;;;;;;8.27;1.53;;;11.80;99.90;;;;;;4988638;28;20489;-77
2023/11/20 05:02:50;;;;;;;5.07;1.73;;;11.80;99.90;;;;;;4989848;28;20430;-77
2023/11/20 05:05:22;;;;;;;5.87;2.40;;;11.80;99.90;;;;;;4988899;28;20446;-77
2023/11/20 05:07:59;;;;;;;6.53;2.00;;;11.70;99.90;;;;;;4989901;28;20441;-77
2023/11/20 05:10:27;;;;;;;7.50;1.90;;;11.70;99.90;;;;;;4987327;28;20473;-77
2023/11/20 05:12:54;;;;;;;5.73;1.90;;;11.70;99.90;;;;;;4987341;28;20449;-76
2023/11/20 05:15:21;;;;;;;6.03;1.90;;;11.70;99.90;;;;;;4982196;28;20560;-76
2023/11/20 05:17:48;;;;;;;5.70;1.70;;;11.70;99.90;;;;;;4982150;28;20454;-75
2023/11/20 05:20:22;;;;;;;10.17;2.30;;;11.70;99.90;;;;;;4982673;28;20492;-76
2023/11/20 05:22:57;;;;;;;11.40;2.20;;;11.70;99.90;;;;;;4983912;28;20440;-77
2023/11/20 05:25:28;;;;;;;8.97;2.40;;;11.70;99.90;;;;;;4985495;28;20957;-77
2023/11/20 05:27:55;;;;;;;7.63;2.33;;;11.80;99.90;;;;;;4982570;28;20512;-75
2023/11/20 05:30:24;;;;;;;10.27;3.23;;;11.70;99.90;;;;;;4980642;28;20476;-77
2023/11/20 05:32:50;;;;;;;7.73;3.07;;;11.70;99.90;;;;;;4982042;28;20480;-77
2023/11/20 05:35:18;;;;;;;12.87;2.53;;;11.70;99.90;;;;;;4982602;28;20453;-76
2023/11/20 05:37:45;;;;;;;8.50;2.33;;;11.70;99.90;;;;;;4984982;28;20492;-77
2023/11/20 05:40:17;;;;;;;11.70;2.43;;;11.70;99.90;;;;;;4983425;28;21045;-77
2023/11/20 05:42:45;;;;;;;11.63;2.43;;;11.80;99.90;;;;;;4983224;28;20982;-78
2023/11/20 05:45:13;;;;;;;7.87;2.63;;;11.80;99.90;;;;;;4981597;28;20452;-78
2023/11/20 05:47:40;;;;;;;5.33;1.80;;;11.80;99.90;;;;;;4978590;28;20449;-77
2023/11/20 05:50:08;;;;;;;13.93;2.47;;;11.80;99.90;;;;;;4977473;28;20465;-77
2023/11/20 05:52:45;;;;;;;9.43;2.50;;;11.80;99.90;;;;;;4983182;28;20512;-77
2023/11/20 05:55:13;;;;;;;10.63;2.67;;;11.80;99.90;;;;;;4983017;28;20529;-77
2023/11/20 05:57:41;;;;;;;12.30;3.13;;;11.80;99.90;;;;;;4986263;28;20449;-77
2023/11/20 06:00:10;;;;;;;12.00;3.00;;;11.80;99.90;;;;;;4986124;28;20489;-77
2023/11/20 06:02:36;;;;;;;10.00;2.37;;;11.70;99.90;;;;;;4983392;28;20450;-77
2023/11/20 06:05:05;;;;;;;14.57;2.77;;;11.70;99.90;;;;;;4983801;28;20453;-77
2023/11/20 06:07:32;;;;;;;14.50;2.80;;;11.70;99.90;;;;;;4985378;28;20445;-75
2023/11/20 06:10:02;;;;;;;9.90;3.17;;;11.70;99.90;;;;;;4984500;28;20472;-77
2023/11/20 06:12:45;;;;;;;9.50;2.63;;;11.70;99.90;;;;;;4984235;28;20838;-77
2023/11/20 06:15:13;;;;;;;15.27;3.57;;;11.70;99.90;;;;;;4985188;28;20455;-77
2023/11/20 06:17:41;;;;;;;7.77;2.47;;;11.70;99.90;;;;;;4985573;28;20441;-77
2023/11/20 06:20:12;;;;;;;17.10;2.70;;;11.70;99.90;;;;;;4990527;28;20497;-77
2023/11/20 06:22:42;;;;;;;13.47;4.23;;;11.70;99.90;;;;;;4995308;28;20426;-77
2023/11/20 06:25:12;;;;;;;13.17;2.80;;;11.80;99.90;;;;;;4990603;28;20448;-77
2023/11/20 06:27:42;;;;;;;13.00;4.00;;;11.80;99.90;;;;;;4990625;28;20865;-77
2023/11/20 06:30:13;;;;;;;16.73;3.23;;;11.80;99.90;;;;;;4991889;28;20461;-77
2023/11/20 06:32:41;;;;;;;15.87;3.30;;;11.80;99.90;;;;;;4990277;28;20476;-77
2023/11/20 06:35:09;;;;;;;11.90;2.37;;;11.80;99.90;;;;;;4989087;28;20446;-78
2023/11/20 06:37:37;;;;;;;19.73;3.83;;;11.80;99.90;;;;;;4986850;28;20480;-77
2023/11/20 06:40:08;;;;;;;10.77;2.57;;;11.80;99.90;;;;;;4985804;28;20496;-77
2023/11/20 06:42:35;;;;;;;10.77;2.43;;;11.80;99.90;;;;;;4984081;28;20476;-78
2023/11/20 06:45:02;;;;;;;9.10;2.30;;;11.90;99.90;;;;;;4983693;28;20476;-77
2023/11/20 06:47:31;;;;;;;7.60;2.70;;;11.90;99.90;;;;;;4982464;28;20461;-77
2023/11/20 06:49:58;;;;;;;12.73;2.50;;;11.90;99.90;;;;;;4983576;28;20991;-77
2023/11/20 06:52:27;;;;;;;10.40;2.43;;;11.90;99.90;;;;;;4982903;28;20452;-77
2023/11/20 06:54:54;;;;;;;7.27;2.10;;;11.90;99.90;;;;;;4982496;28;20453;-77
2023/11/20 06:57:23;;;;;;;11.83;2.33;;;11.80;99.90;;;;;;4987008;28;20513;-77
2023/11/20 06:59:50;;;;;;;21.30;3.07;;;11.80;99.90;;;;;;4997492;28;20512;-77
2023/11/20 07:02:17;;;;;;;16.50;2.70;;;11.80;99.90;;;;;;4995745;28;20468;-77
2023/11/20 07:04:48;;;;;;;16.30;2.97;;;11.80;99.90;;;;;;4991247;28;20468;-77
2023/11/20 07:07:16;;;;;;;10.50;2.27;;;11.80;99.90;;;;;;4990131;28;20460;-77
2023/11/20 07:09:44;;;;;;;24.00;3.77;;;11.80;99.90;;;;;;4988472;28;20500;-77
2023/11/20 07:12:11;;;;;;;16.33;3.10;;;11.80;99.90;;;;;;4979131;28;20452;-76
2023/11/20 07:14:40;;;;;;;10.30;2.90;;;11.80;99.90;;;;;;4978645;28;20452;-76
2023/11/20 07:17:07;;;;;;;7.13;2.30;;;11.80;99.90;;;;;;4978486;28;20449;-76
2023/11/20 07:19:33;;;;;;;13.40;3.03;;;11.80;99.90;;;;;;4961169;28;20521;-76
2023/11/20 07:22:02;;;;;;;18.83;3.10;;;11.80;99.90;;;;;;4978737;28;20805;-76
2023/11/20 07:24:30;;;;;;;9.90;2.80;;;11.80;99.90;;;;;;4981736;28;20488;-76
2023/11/20 07:26:57;;;;;;;12.43;3.43;;;11.90;99.90;;;;;;4978632;28;20496;-76
2023/11/20 07:29:24;;;;;;;11.33;3.67;;;11.90;99.90;;;;;;4980393;28;20473;-76
2023/11/20 07:31:54;;;;;;;13.93;3.03;;;11.90;99.90;;;;;;4980719;28;20449;-77
2023/11/20 07:34:23;;;;;;;9.47;2.07;;;11.90;99.90;;;;;;4978232;28;20449;-77
2023/11/20 07:36:50;;;;;;;11.77;2.60;;;11.90;99.90;;;;;;4977824;28;20961;-77
2023/11/20 07:39:19;;;;;;;11.43;3.00;;;12.00;99.90;;;;;;4978226;28;20497;-77
2023/11/20 07:41:46;;;;;;;14.60;2.60;;;12.00;99.90;;;;;;4977514;28;20500;-76
2023/11/20 07:44:13;;;;;;;13.60;3.03;;;11.90;99.90;;;;;;4976806;28;20453;-77
2023/11/20 07:46:41;;;;;;;10.20;2.47;;;12.00;99.90;;;;;;4977473;28;20449;-77
2023/11/20 07:49:09;;;;;;;12.93;3.07;;;12.00;99.90;;;;;;4978315;28;20488;-76
2023/11/20 07:51:36;;;;;;;14.27;2.83;;;11.90;99.90;;;;;;4977985;28;20453;-76
2023/11/20 07:54:03;;;;;;;8.60;2.30;;;11.90;99.90;;;;;;4977414;28;20445;-76
2023/11/20 07:56:31;;;;;;;11.30;2.43;;;11.90;99.90;;;;;;4977002;28;20449;-77
2023/11/20 07:58:58;;;;;;;8.70;2.40;;;11.90;99.90;;;;;;4977147;28;20473;-77
2023/11/20 08:01:25;;;;;;;13.40;3.50;;;11.90;99.90;;;;;;4978268;28;20489;-77
2023/11/20 08:03:54;;;;;;;9.97;2.73;;;11.80;99.90;;;;;;4976832;28;21009;-77
2023/11/20 08:06:20;;;;;;;9.93;2.60;;;11.80;99.90;;;;;;4976358;28;20453;-77
2023/11/20 08:08:48;;;;;;;10.40;2.30;;;11.80;99.90;;;;;;4977963;28;20860;-77
2023/11/20 08:11:16;;;;;;;12.73;2.63;;;11.80;99.90;;;;;;4978356;28;20457;-76
2023/11/20 08:13:44;;;;;;;9.33;2.73;;;11.80;99.90;;;;;;4977163;28;20456;-77
2023/11/20 08:16:11;;;;;;;11.20;3.13;;;11.80;99.90;;;;;;4976563;28;20452;-77
2023/11/20 08:18:42;;;;;;;15.80;3.17;;;11.80;99.90;;;;;;4976069;28;20477;-76
2023/11/20 08:21:09;;;;;;;10.30;3.83;;;11.80;99.90;;;;;;4977504;28;20477;-77
2023/11/20 08:23:36;;;;;;;8.70;2.40;;;11.80;99.90;;;;;;4976859;28;20492;-77
2023/11/20 08:26:05;;;;;;;7.10;2.20;;;11.90;99.90;;;;;;4977440;28;20449;-77
2023/11/20 08:28:31;;;;;;;12.57;4.23;;;11.90;99.90;;;;;;4974715;28;20939;-77
2023/11/20 08:30:59;;;;;;;12.17;2.30;;;12.00;99.90;;;;;;4976538;28;20842;-77
2023/11/20 08:33:26;;;;;;;12.33;2.90;;;12.00;99.90;;;;;;4986120;28;20421;-77
2023/11/20 08:35:55;;;;;;;10.30;2.27;;;12.00;99.90;;;;;;4982971;28;20461;-77
2023/11/20 08:38:22;;;;;;;7.53;3.40;;;12.10;99.90;;;;;;4980543;28;20884;-77
2023/11/20 08:40:50;;;;;;;12.70;2.90;;;12.20;99.90;;;;;;4979531;28;20876;-77
2023/11/20 08:43:18;;;;;;;7.00;2.43;;;12.20;99.90;;;;;;4978005;28;20793;-77
2023/11/20 08:45:46;;;;;;;12.23;2.40;;;12.30;99.90;;;;;;4976221;28;20934;-78
2023/11/20 08:48:17;;;;;;;12.63;2.63;;;12.30;99.90;;;;;;4977707;28;20539;-77
2023/11/20 08:50:44;;;;;;;13.20;2.50;;;12.30;99.90;;;;;;4979749;28;20528;-77
2023/11/20 08:53:12;;;;;;;13.63;3.47;;;12.30;99.90;;;;;;4977938;28;20444;-77
2023/11/20 08:55:41;;;;;;;17.10;2.97;;;12.30;99.90;;;;;;4978204;28;20670;-77
2023/11/20 08:58:11;;;;;;;7.60;2.13;;;12.20;99.90;;;;;;4983546;28;20503;-72
2023/11/20 09:00:38;;;;;;;10.40;2.70;;;12.30;99.90;;;;;;4979952;28;20489;-71
2023/11/20 09:03:05;;;;;;;5.63;1.43;;;12.10;99.90;;;;;;4980078;28;21019;-72
2023/11/20 09:05:35;;;;;;;9.40;2.23;;;12.10;99.90;;;;;;4980530;28;20939;-73
2023/11/20 09:08:02;;;;;;;7.90;2.33;;;12.10;99.90;;;;;;4983353;28;20481;-74
2023/11/20 09:10:29;;;;;;;15.03;3.10;;;12.00;99.90;;;;;;4982996;28;20461;-70
2023/11/20 09:12:57;;;;;;;10.77;1.90;;;12.00;99.90;;;;;;4978674;28;20824;-70
2023/11/20 09:15:27;;;;;;;11.73;2.00;;;12.00;99.90;;;;;;4979452;28;20454;-72
2023/11/20 09:17:58;;;;;;;11.83;2.67;;;12.00;99.90;;;;;;4981934;28;20450;-74
2023/11/20 09:20:27;;;;;;;6.03;2.77;;;12.00;99.90;;;;;;4985639;28;20580;-75
2023/11/20 09:22:57;;;;;;;6.00;2.20;;;12.00;99.90;;;;;;4982182;28;20449;-75
2023/11/20 09:25:25;;;;;;;11.17;2.70;;;12.10;99.90;;;;;;4982398;28;20449;-76
2023/11/20 09:27:56;;;;;;;8.90;1.80;;;12.10;99.90;;;;;;4981965;28;20935;-77
2023/11/20 09:30:23;;;;;;;9.43;2.20;;;12.20;99.90;;;;;;4980320;28;20463;-76
2023/11/20 09:32:50;;;;;;;10.57;2.23;;;12.20;99.90;;;;;;4978431;28;20441;-74
2023/11/20 09:35:18;;;;;;;5.13;1.83;;;12.30;99.90;;;;;;4978526;28;20449;-73
2023/11/20 09:38:09;;;;;;;17.03;2.70;;;12.30;99.90;;;;;;4993196;28;20529;-75
2023/11/20 09:40:45;;;;;;;5.93;1.53;;;12.30;99.90;;;;;;4997483;28;20515;-74
2023/11/20 09:43:12;;;;;;;5.27;1.57;;;12.20;99.90;;;;;;4991123;28;20433;-76
2023/11/20 09:45:48;;;;;;;4.07;1.23;;;12.30;99.90;;;;;;4994853;28;20457;-76
2023/11/20 09:48:19;;;;;;;8.80;2.00;;;12.40;99.90;;;;;;4991159;28;20430;-75
2023/11/20 09:50:50;;;;;;;10.17;2.13;;;12.40;99.90;;;;;;4989054;28;20458;-76
2023/11/20 09:53:19;;;;;;;9.57;1.77;;;12.50;99.90;;;;;;4986691;28;20438;-76
2023/11/20 09:55:47;;;;;;;6.97;2.77;;;12.60;99.90;;;;;;4983308;28;20452;-76
2023/11/20 09:58:15;;;;;;;5.73;1.67;;;12.50;99.90;;;;;;4982217;28;20487;-76
2023/11/20 10:00:42;;;;;;;14.17;2.10;;;12.50;99.90;;;;;;4981993;28;20523;-76
2023/11/20 10:03:10;;;;;;;5.73;1.83;;;12.50;99.90;;;;;;4980914;28;20525;-76
2023/11/20 10:05:48;;;;;;;9.70;2.13;;;12.50;99.90;;;;;;4978628;28;20446;-76
2023/11/20 10:08:18;;;;;;;8.03;2.20;;;12.40;99.90;;;;;;4977041;28;20433;-76
2023/11/20 10:10:55;;;;;;;12.83;2.77;;;12.40;99.90;;;;;;4961422;28;20514;-76
2023/11/20 10:13:28;;;;;;;9.07;2.03;;;12.50;99.90;;;;;;4978488;28;20509;-77
2023/11/20 10:15:59;;;;;;;5.43;1.80;;;12.40;99.90;;;;;;4978057;28;20457;-76
2023/11/20 10:18:26;;;;;;;8.50;1.90;;;12.40;99.90;;;;;;4977709;28;20490;-76
2023/11/20 10:20:53;;;;;;;7.50;1.80;;;12.30;99.90;;;;;;4975590;28;20492;-76
2023/11/20 10:23:32;;;;;;;3.80;2.10;;;12.30;99.90;;;;;;4979456;28;20477;-76
2023/11/20 10:26:00;;;;;;;6.80;1.50;;;12.30;99.90;;;;;;4979481;28;20434;-76
2023/11/20 10:28:26;;;;;;;7.73;1.80;;;12.30;99.90;;;;;;4980139;28;20453;-76
2023/11/20 10:30:57;;;;;;;5.63;1.70;;;12.40;99.90;;;;;;4980070;28;20487;-76
2023/11/20 10:33:24;;;;;;;4.77;1.97;;;12.50;99.90;;;;;;4977292;28;20448;-76
2023/11/20 10:35:51;;;;;;;3.37;1.33;;;12.40;99.90;;;;;;4976598;28;20445;-76
2023/11/20 10:38:24;;;;;;;3.57;1.57;;;12.60;99.90;;;;;;4977925;28;20449;-76
2023/11/20 10:40:57;;;;;;;2.10;1.00;;;12.60;99.90;;;;;;4976717;28;20488;-76
2023/11/20 10:43:27;;;;;;;2.70;0.90;;;12.70;99.90;;;;;;4974503;28;20516;-75
2023/11/20 10:45:53;;;;;;;2.57;0.90;;;12.70;99.90;;;;;;4984630;28;20436;-74
2023/11/20 10:48:22;;;;;;;2.73;1.10;;;12.80;99.90;;;;;;4971198;28;20457;-74
2023/11/20 10:50:50;;;;;;;2.63;1.50;;;12.80;99.90;;;;;;4983793;28;20495;-75
2023/11/20 10:53:18;;;;;;;4.47;1.10;;;12.80;99.90;;;;;;4982624;28;20467;-75
2023/11/20 10:55:52;;;;;;;2.47;1.03;;;12.90;99.90;;;;;;4983440;28;20951;-76
2023/11/20 10:58:20;;;;;;;2.00;0.90;;;13.00;99.90;;;;;;4979768;28;20495;-76
2023/11/20 11:00:49;;;;;;;3.90;1.17;;;13.00;99.90;;;;;;4980838;28;21037;-75
2023/11/20 11:03:17;;;;;;;2.60;0.83;;;12.80;99.90;;;;;;4977870;28;20829;-76
2023/11/20 11:05:46;;;;;;;1.83;1.10;;;12.80;99.90;;;;;;4979075;28;20445;-75
2023/11/20 11:08:16;;;;;;;3.53;0.70;;;12.80;99.90;;;;;;4976888;28;20539;-75
2023/11/20 11:10:46;;;;;;;3.70;0.60;;;12.90;99.90;;;;;;4979379;28;20461;-76
2023/11/20 11:13:13;;;;;;;1.17;0.70;;;13.00;99.90;;;;;;4980005;28;20469;-76
2023/11/20 11:15:40;;;;;;;1.30;0.90;;;13.00;99.90;;;;;;4978023;28;20955;-76
2023/11/20 11:18:12;;;;;;;5.13;1.27;;;13.10;99.90;;;;;;4978545;28;20445;-75
2023/11/20 11:20:48;;;;;;;4.20;1.13;;;13.10;99.90;;;;;;4977419;28;20946;-75
2023/11/20 11:23:16;;;;;;;4.20;0.90;;;13.00;99.90;;;;;;4976305;28;20947;-76
2023/11/20 11:25:56;;;;;;;3.37;0.90;;;13.00;99.90;;;;;;4977109;28;20458;-76
2023/11/20 11:28:25;;;;;;;4.10;1.00;;;13.00;99.90;;;;;;4975955;28;20934;-76
2023/11/20 11:30:54;;;;;;;3.57;1.13;;;12.90;99.90;;;;;;4977197;28;20545;-77
2023/11/20 11:33:47;;;;;;;3.23;0.70;;;12.80;99.90;;;;;;4977655;28;20446;-76
2023/11/20 11:36:33;;;;;;;1.40;0.53;;;12.90;99.90;;;;;;4948640;28;20441;-76
2023/11/20 11:39:22;;;;;;;2.20;1.17;;;12.80;99.90;;;;;;4974928;28;20481;-76
2023/11/20 11:42:05;;;;;;;3.90;0.90;;;12.80;99.90;;;;;;4977608;28;20466;-76
2023/11/20 11:44:59;;;;;;;3.80;1.17;;;12.80;99.90;;;;;;4977424;28;20438;-76
2023/11/20 11:47:28;;;;;;;1.70;0.87;;;12.80;99.90;;;;;;4977047;28;20433;-76
2023/11/20 11:49:57;;;;;;;4.23;1.37;;;12.80;99.90;;;;;;4977100;28;20469;-76
2023/11/20 11:52:31;;;;;;;3.10;1.17;;;12.70;99.90;;;;;;4978091;28;20445;-76
2023/11/20 11:55:24;;;;;;;1.50;0.90;;;12.70;99.90;;;;;;4977491;28;20484;-77
2023/11/20 11:57:57;;;;;;;3.70;0.97;;;12.60;99.90;;;;;;4976779;28;20444;-77
2023/11/20 12:00:26;;;;;;;3.33;1.17;;;12.60;99.90;;;;;;4977336;28;20475;-76
2023/11/20 12:03:08;;;;;;;3.00;1.20;;;12.70;99.90;;;;;;4976802;28;20488;-76
2023/11/20 12:06:14;;;;;;;2.97;1.00;;;12.80;99.90;;;;;;4983115;28;20458;-76
2023/11/20 12:08:42;;;;;;;4.10;1.57;;;12.80;99.90;;;;;;4982105;28;20457;-76
2023/11/20 12:11:10;;;;;;;4.13;1.57;;;12.90;99.90;;;;;;4982345;28;20445;-77
2023/11/20 12:14:08;;;;;;;4.33;1.40;;;12.90;99.90;;;;;;4983246;28;20461;-76
2023/11/20 12:16:37;;;;;;;2.57;1.07;;;12.90;99.90;;;;;;4988486;28;20511;-76
2023/11/20 12:19:07;;;;;;;6.70;2.20;;;13.00;99.90;;;;;;4981072;28;20462;-77
2023/11/20 12:21:34;;;;;;;9.03;1.50;;;13.10;99.90;;;;;;4981033;28;20524;-77
2023/11/20 12:24:01;;;;;;;7.10;1.60;;;13.30;99.90;;;;;;4980850;28;20955;-77
2023/11/20 12:26:28;;;;;;;4.77;1.20;;;13.30;99.90;;;;;;4979305;28;20460;-77
2023/11/20 12:28:57;;;;;;;6.60;1.33;;;13.40;99.90;;;;;;4977714;28;20983;-76
2023/11/20 12:31:24;;;;;;;5.20;1.60;;;13.50;99.90;;;;;;4978023;28;20442;-76
2023/11/20 12:33:52;;;;;;;8.70;1.50;;;13.50;99.90;;;;;;4978744;28;20536;-76
2023/11/20 12:36:21;;;;;;;5.97;1.40;;;13.40;99.40;;;;;;4977714;28;20456;-76
2023/11/20 12:38:49;;;;;;;8.40;1.30;;;13.50;99.90;;;;;;4978202;28;20545;-77
2023/11/20 12:41:19;;;;;;;3.53;1.23;;;13.60;99.50;;;;;;4975562;28;20485;-76
2023/11/20 12:43:49;;;;;;;3.20;1.10;;;13.80;99.50;;;;;;4976485;28;20548;-76
2023/11/20 12:46:19;;;;;;;2.83;1.20;;;14.00;98.90;;;;;;4976527;28;20449;-76
2023/11/20 12:48:48;;;;;;;6.17;1.50;;;14.20;98.10;;;;;;4976806;28;20444;-76
2023/11/20 12:51:15;;;;;;;6.00;1.67;;;14.50;97.50;;;;;;4976438;28;20532;-76
2023/11/20 12:53:44;;;;;;;8.80;1.97;;;14.70;97.00;;;;;;4975245;28;20963;-76